Portada
METAR-TAF:

METAR-TAF

Aeropuertos :

Tokio-Haneda, Japón

Aeropuerto Internacional de Haneda

latitud: 35-33N, longitud: 139-47E, altitud: 5 m

Observación

El informe se hizo hace 45 minutos, a las 10:30 UTC
Viento 16 kt del sur
Temperatura 22°C
Humedad 65%
Presión 1011 hPa
Visibilidad 10 km o más
Escasas nubes a una altura de 3000 ft
Cielo nuboso

METAR: RJTT 291030Z 18016KT 9999 FEW030 BKN/// 22/15 Q1011 NOSIG

Hora: 20:15 (11:15 UTC)

Pronóstico

El informe se hizo hace 6 horas y 9 minutos, a las 05:06 UTC
Pronóstico válido del 29 a las 06 UTC al 30 a las 12 UTC
Viento 18 kt del sur
Visibilidad 10 km o más
Escasas nubes a una altura de 3000 ft
Evolucionando progresivamente
del 29 a las 15 UTC al 29 a las 17 UTC
Viento 6 kt del suroeste
Evolucionando progresivamente
del 30 a las 00 UTC al 30 a las 03 UTC
Viento 18 kt del sur

TAF: RJTT 290506Z 2906/3012 19018KT 9999 FEW030 BECMG 2915/2917 22006KT BECMG 3000/3003 18018KT

Observaciones y pronósticos meteorológicos de más de 4000 aeropuertos (mensajes METAR y TAF).

Los puntos amarillos y rojos representan las estaciones disponibles.

Ponga el ratón en el punto deseado para ver el nombre de la estación.

Haga clic para ver las observaciones y los pronósticos meteorológicos.

Para cambiar el mapa : haga clic en los botones verdes con una cruz de color negro para hacer un zoom, en el botón verde con un guión para alejar o en las flechas verdes para mapas adyacentes.


METAR-TAF: